Flight Track Log - Related Links

Times and Time Zones

All times are in EDT time to prevent confusion due to time zone crossing. See the EZY4318 flight status page for this flight to view local times or setup timezone preferences in your user account.

Time Position Orientation Groundspeed Altitude Reporting Facility
EDT Latitude Longitude Course Direction KTS MPH feet Rate Location/Type
Fri 10:01:00 AM 48.2264 -3.4833 109° East  Level Estimated
Fri 10:02:00 AM 48.1982 -3.3670 110° East  Level Estimated
Fri 10:03:00 AM 48.1698 -3.2508 110° East  Level Estimated
Fri 10:04:00 AM 48.1414 -3.1347 110° East  Level Estimated
Fri 10:05:00 AM 48.1128 -3.0188 110° East  Level Estimated
Fri 10:06:00 AM 48.0841 -2.9030 110° East  Level Estimated
Fri 10:07:00 AM 48.0553 -2.7873 110° East  Level Estimated
Fri 10:08:00 AM 48.0264 -2.6718 110° East  Level Estimated
Fri 10:09:00 AM 47.9974 -2.5563 111° Southeast  Level Estimated
Fri 10:10:00 AM 47.9682 -2.4411 111° Southeast  Level Estimated
Fri 10:11:00 AM 47.9389 -2.3259 111° Southeast  Level Estimated
Fri 10:12:00 AM 47.9096 -2.2109 111° Southeast  Level Estimated
Fri 10:13:00 AM 47.8801 -2.0960 111° Southeast  Level Estimated
Fri 10:14:00 AM 47.8505 -1.9812 111° Southeast  Level Estimated
Fri 10:15:00 AM 47.8200 -1.8638 111° Southeast  Level Estimated
Fri 10:16:00 AM 47.7895 -1.7465 111° Southeast  Level Estimated
Fri 10:17:00 AM 47.7588 -1.6294 111° Southeast  Level Estimated
Fri 10:18:00 AM 47.7280 -1.5124 111° Southeast  Level Estimated
Fri 10:19:00 AM 47.6971 -1.3956 111° Southeast  Level Estimated
Fri 10:20:00 AM 47.6660 -1.2789 112° Southeast  Level Estimated
Fri 10:21:00 AM 47.6349 -1.1623 112° Southeast  Level Estimated
Fri 10:22:00 AM 47.6036 -1.0459 112° Southeast  Level Estimated
Fri 10:23:00 AM 47.5722 -0.9296 112° Southeast  Level Estimated
Fri 10:24:00 AM 47.5407 -0.8134 112° Southeast  Level Estimated
Fri 10:25:00 AM 47.5091 -0.6974 112° Southeast  Level Estimated
Fri 10:26:00 AM 47.4773 -0.5816 112° Southeast  Level Estimated
Fri 10:27:00 AM 47.4455 -0.4658 112° Southeast  Level Estimated
Fri 10:28:00 AM 47.4135 -0.3502 112° Southeast  Level Estimated
Fri 10:29:00 AM 47.3814 -0.2348 112° Southeast  Level Estimated
Fri 10:30:00 AM 47.3492 -0.1195 112° Southeast  Level Estimated
Fri 10:31:00 AM 47.3169 -0.0043 112° Southeast  Level Estimated
Fri 10:32:00 AM 47.2720 0.1548 113° Southeast  Level Estimated
Fri 10:33:00 AM 47.2268 0.3136 113° Southeast  Level Estimated
Fri 10:34:00 AM 47.1815 0.4721 113° Southeast  Level Estimated
Fri 10:35:00 AM 47.1359 0.6304 113° Southeast  Level Estimated
Fri 10:36:00 AM 47.0902 0.7884 113° Southeast  Level Estimated
Fri 10:37:00 AM 47.0442 0.9461 113° Southeast  Level Estimated
Fri 10:38:00 AM 46.9980 1.1036 113° Southeast  Level Estimated
Fri 10:39:00 AM 46.9515 1.2608 113° Southeast  Level Estimated
Fri 10:40:00 AM 46.9049 1.4177 113° Southeast  Level Estimated
Fri 10:41:00 AM 46.8580 1.5743 114° Southeast  Level Estimated
Fri 10:42:00 AM 46.8110 1.7307 114° Southeast  Level Estimated
Fri 10:43:00 AM 46.7637 1.8868 114° Southeast  Level Estimated
Fri 10:44:00 AM 46.7162 2.0426 114° Southeast  Level Estimated
Fri 10:45:00 AM 46.6685 2.1981 114° Southeast  Level Estimated
Fri 10:46:00 AM 46.6206 2.3534 114° Southeast  Level Estimated
Fri 10:47:00 AM 46.5724 2.5084 114° Southeast  Level Estimated
Fri 10:48:00 AM 46.5241 2.6631 114° Southeast  Level Estimated
Fri 10:49:00 AM 46.4756 2.8175 114° Southeast  Level Estimated
Fri 10:50:00 AM 46.4268 2.9717 115° Southeast  Level Estimated
Fri 10:51:00 AM 46.3779 3.1256 115° Southeast  Level Estimated
Fri 10:52:00 AM 46.3287 3.2792 115° Southeast  Level Estimated
Fri 10:53:00 AM 46.2793 3.4325 115° Southeast  Level Estimated
Fri 10:54:00 AM 46.2417 3.5488 115° Southeast  Level Estimated
Fri 10:55:00 AM 46.2039 3.6649 115° Southeast  Level Estimated
Fri 10:56:00 AM 46.1661 3.7808 115° Southeast  Level Estimated
Fri 10:57:00 AM 46.1281 3.8966 115° Southeast  Level Estimated
Fri 10:58:00 AM 46.0900 4.0122 115° Southeast  Level Estimated
Fri 10:59:00 AM 46.0518 4.1277 115° Southeast  Level Estimated
Fri 11:00:00 AM 46.0135 4.2430 116° Southeast  Level Estimated
Fri 11:01:00 AM 45.9750 4.3582 116° Southeast  Level Estimated
Fri 11:02:00 AM 45.9364 4.4732 116° Southeast  Level Estimated
Fri 11:03:00 AM 45.8978 4.5880 116° Southeast  Level Estimated
Fri 11:04:00 AM 45.8590 4.7027 116° Southeast  Level Estimated
Fri 11:05:00 AM 45.8201 4.8172 116° Southeast  Level Estimated
Fri 11:06:00 AM 45.7810 4.9315 116° Southeast  Level Estimated
Fri 11:07:00 AM 45.7419 5.0457 116° Southeast  Level Estimated
Fri 11:08:00 AM 45.7264 5.0908 116° Southeast  Level Estimated
Fri 11:09:00 AM 45.7264 5.0908 145° Southeast  Level Estimated
Fri 11:10:00 AM 45.7264 5.0908 145° Southeast  Level Estimated
Fri 11:11:00 AM 45.7264 5.0908 145° Southeast  Level Estimated
Fri 11:12:00 AM 45.7264 5.0908 145° Southeast  Level Estimated
Fri 11:13:00 AM 45.7264 5.0908 145° Southeast  Level Estimated
Fri 11:14:00 AM 45.7264 5.0908 145° Southeast  Level Estimated
Fri 11:15:00 AM 45.7264 5.0908 145° Southeast  Level Estimated
Fri 11:16:00 AM 45.7264 5.0908 145° Southeast  Level Estimated
Fri 11:17:00 AM 45.7264 5.0908 145° Southeast  Level Estimated
Fri 11:18:00 AM 45.7264 5.0908 145° Southeast  Level Estimated
Fri 11:19:00 AM 45.7264 5.0908 145° Southeast  Level Estimated
Fri 11:20:00 AM 45.7264 5.0908 145° Southeast  Level Estimated
Fri 11:21:00 AM 45.7264 5.0908 145° Southeast  Level Estimated
Fri 11:22:00 AM 45.7264 5.0908 145° Southeast  Level Estimated
Fri 11:23:00 AM 45.7264 5.0908 145° Southeast  Level Estimated
Fri 11:24:00 AM 45.7264 5.0908 145° Southeast  Level Estimated
Fri 11:25:00 AM 45.7264 5.0908 145° Southeast  Level Estimated

Login

Don't have an account? Register now (free) for customized features, flight alerts, and more!